createdAt,value
2017-12-10T00:01:05.532Z,3.80
2017-12-10T00:03:32.964Z,2.95
2017-12-10T00:06:00.407Z,3.20
2017-12-10T00:08:27.851Z,2.58
2017-12-10T00:10:55.280Z,4.03
2017-12-10T00:13:22.752Z,2.90
2017-12-10T00:15:50.185Z,3.42
2017-12-10T00:18:17.655Z,4.05
2017-12-10T00:20:45.888Z,6.78
2017-12-10T00:23:13.329Z,6.35
2017-12-10T00:25:40.779Z,6.60
2017-12-10T00:28:08.217Z,3.30
2017-12-10T00:30:35.645Z,4.07
2017-12-10T00:33:03.072Z,3.17
2017-12-10T00:35:30.508Z,2.65
2017-12-10T00:37:57.979Z,3.05
2017-12-10T00:40:25.427Z,3.37
2017-12-10T00:42:52.872Z,3.62
2017-12-10T00:45:20.316Z,2.50
2017-12-10T00:47:47.856Z,3.35
2017-12-10T00:50:15.305Z,3.12
2017-12-10T00:52:42.740Z,2.35
2017-12-10T00:55:10.193Z,2.70
2017-12-10T00:57:37.667Z,2.97
2017-12-10T01:00:05.104Z,2.50
2017-12-10T01:02:32.540Z,2.60
2017-12-10T01:05:00.737Z,2.58
2017-12-10T01:07:28.177Z,2.55
2017-12-10T01:09:55.655Z,3.10
2017-12-10T01:12:23.206Z,3.28
2017-12-10T01:14:50.660Z,2.53
2017-12-10T01:17:18.096Z,2.62
2017-12-10T01:19:47.172Z,2.53
2017-12-10T01:22:14.597Z,3.00
2017-12-10T01:24:42.066Z,2.40
2017-12-10T01:27:09.492Z,2.00
2017-12-10T01:29:37.708Z,3.22
2017-12-10T01:32:05.156Z,2.97
2017-12-10T01:34:32.592Z,2.50
2017-12-10T01:37:00.029Z,2.78
2017-12-10T01:39:27.488Z,1.80
2017-12-10T01:41:54.917Z,2.60
2017-12-10T01:44:22.355Z,2.65
2017-12-10T01:46:49.821Z,2.60
2017-12-10T01:49:17.443Z,2.70
2017-12-10T01:51:44.908Z,2.42
2017-12-10T01:54:12.468Z,2.83
2017-12-10T01:56:39.898Z,3.55
2017-12-10T01:59:10.289Z,2.90
2017-12-10T02:01:37.756Z,2.67
2017-12-10T02:04:05.292Z,3.22
2017-12-10T02:06:32.735Z,2.60
2017-12-10T02:09:00.776Z,2.70
2017-12-10T02:11:28.208Z,3.40
2017-12-10T02:13:55.648Z,2.60
2017-12-10T02:16:23.120Z,2.72
2017-12-10T02:18:50.669Z,2.70
2017-12-10T02:21:18.099Z,2.60
2017-12-10T02:23:45.543Z,2.95
2017-12-10T02:26:13.002Z,2.65
2017-12-10T02:28:41.340Z,3.03
2017-12-10T02:31:08.785Z,3.03
2017-12-10T02:33:36.243Z,2.72
2017-12-10T02:36:03.691Z,2.40
2017-12-10T02:38:31.124Z,2.70
2017-12-10T02:40:58.567Z,3.70
2017-12-10T02:43:26.026Z,3.58
2017-12-10T02:45:53.556Z,2.92
2017-12-10T02:48:20.992Z,2.80
2017-12-10T02:50:48.444Z,2.40
2017-12-10T02:53:15.880Z,2.30
2017-12-10T02:55:43.337Z,3.20
2017-12-10T02:58:10.780Z,2.40
2017-12-10T03:00:38.318Z,2.80
2017-12-10T03:03:05.753Z,2.58
2017-12-10T03:05:33.192Z,2.67
2017-12-10T03:08:00.628Z,2.72
2017-12-10T03:10:28.976Z,2.70
2017-12-10T03:12:56.468Z,2.20
2017-12-10T03:15:33.837Z,2.75
2017-12-10T03:18:01.384Z,2.83
2017-12-10T03:20:28.921Z,2.72
2017-12-10T03:22:56.356Z,3.05
2017-12-10T03:25:23.787Z,2.35
2017-12-10T03:27:51.253Z,3.00
2017-12-10T03:30:18.810Z,2.75
2017-12-10T03:32:46.249Z,2.70
2017-12-10T03:35:15.244Z,2.95
2017-12-10T03:37:42.812Z,2.67
2017-12-10T03:40:10.323Z,3.12
2017-12-10T03:42:37.753Z,2.45
2017-12-10T03:45:05.185Z,2.62
2017-12-10T03:47:32.636Z,2.03
2017-12-10T03:50:00.080Z,2.80
2017-12-10T03:52:27.626Z,2.30
2017-12-10T03:54:55.075Z,2.10
2017-12-10T03:57:22.526Z,2.90
2017-12-10T03:59:50.061Z,2.50
2017-12-10T04:02:17.496Z,2.75
2017-12-10T04:04:44.928Z,2.95
2017-12-10T04:07:12.407Z,2.75
2017-12-10T04:09:39.828Z,2.15
2017-12-10T04:12:07.276Z,2.50
2017-12-10T04:14:34.816Z,2.50
2017-12-10T04:17:02.264Z,2.50
2017-12-10T04:19:29.700Z,2.30
2017-12-10T04:21:57.125Z,2.30
2017-12-10T04:24:24.562Z,3.05
2017-12-10T04:26:52.784Z,2.50
2017-12-10T04:29:20.232Z,2.60
2017-12-10T04:31:47.665Z,3.05
2017-12-10T04:34:15.109Z,2.70
2017-12-10T04:36:42.573Z,2.20
2017-12-10T04:39:10.109Z,2.37
2017-12-10T04:41:37.543Z,2.60
2017-12-10T04:44:05.019Z,1.90
2017-12-10T04:46:33.221Z,2.60
2017-12-10T04:49:00.676Z,2.62
2017-12-10T04:51:28.099Z,2.17
2017-12-10T04:53:55.537Z,2.50
2017-12-10T04:56:22.971Z,2.53
2017-12-10T04:58:50.420Z,3.22
2017-12-10T05:01:17.862Z,2.65
2017-12-10T05:03:45.352Z,2.65
2017-12-10T05:06:12.793Z,4.32
2017-12-10T05:08:40.249Z,3.55
2017-12-10T05:11:09.198Z,5.35
2017-12-10T05:13:36.661Z,5.30
2017-12-10T05:16:04.106Z,2.60
2017-12-10T05:18:31.527Z,2.62
2017-12-10T05:20:58.989Z,2.83
2017-12-10T05:23:26.432Z,4.70
2017-12-10T05:25:53.877Z,3.70
2017-12-10T05:28:21.316Z,4.00
2017-12-10T05:30:48.755Z,4.35
2017-12-10T05:33:16.181Z,4.40
2017-12-10T05:35:43.650Z,6.12
2017-12-10T05:38:11.114Z,5.60
2017-12-10T05:40:38.560Z,2.67
2017-12-10T05:43:06.008Z,3.55
2017-12-10T05:45:33.443Z,4.15
2017-12-10T05:48:00.880Z,5.37
2017-12-10T05:50:28.321Z,3.50
2017-12-10T05:52:55.760Z,3.25
2017-12-10T05:55:23.216Z,2.58
2017-12-10T05:57:50.715Z,2.80
2017-12-10T06:00:18.200Z,2.70
2017-12-10T06:02:45.744Z,2.10
2017-12-10T06:05:13.201Z,2.28
2017-12-10T06:07:40.635Z,2.30
2017-12-10T06:10:08.074Z,2.10
2017-12-10T06:12:35.520Z,2.10
2017-12-10T06:15:02.966Z,1.95
2017-12-10T06:17:30.405Z,1.58
2017-12-10T06:19:57.831Z,2.70
2017-12-10T06:22:25.280Z,2.55
2017-12-10T06:24:52.719Z,1.80
2017-12-10T06:27:20.929Z,2.05
2017-12-10T06:29:48.373Z,1.83
2017-12-10T06:32:15.839Z,1.90
2017-12-10T06:34:43.302Z,1.70
2017-12-10T06:37:10.901Z,1.77
2017-12-10T06:39:38.357Z,2.45
2017-12-10T06:42:05.783Z,1.92
2017-12-10T06:44:33.238Z,1.80
2017-12-10T06:47:00.673Z,1.60
2017-12-10T06:49:28.142Z,2.15
2017-12-10T06:51:55.594Z,1.80
2017-12-10T06:54:23.031Z,1.85
2017-12-10T06:56:50.459Z,2.05
2017-12-10T06:59:17.908Z,2.50
2017-12-10T07:01:45.337Z,1.67
2017-12-10T07:04:12.773Z,1.70
2017-12-10T07:06:40.199Z,2.30
2017-12-10T07:09:07.640Z,1.37
2017-12-10T07:11:35.084Z,1.35
2017-12-10T07:14:02.573Z,1.70
2017-12-10T07:16:30.006Z,1.73
2017-12-10T07:18:57.460Z,1.50
2017-12-10T07:21:24.925Z,1.92
2017-12-10T07:23:53.160Z,1.40
2017-12-10T07:26:20.594Z,1.83
2017-12-10T07:28:48.027Z,1.40
2017-12-10T07:31:15.469Z,1.85
2017-12-10T07:33:42.990Z,1.67
2017-12-10T07:36:10.408Z,1.65
2017-12-10T07:38:38.632Z,1.27
2017-12-10T07:41:06.077Z,1.83
2017-12-10T07:43:33.510Z,1.87
2017-12-10T07:46:01.054Z,1.17
2017-12-10T07:48:28.580Z,2.42
2017-12-10T07:50:56.012Z,1.35
2017-12-10T07:53:23.568Z,1.60
2017-12-10T07:55:51.099Z,2.15
2017-12-10T07:58:18.541Z,1.58
2017-12-10T08:00:45.980Z,1.50
2017-12-10T08:03:13.420Z,1.77
2017-12-10T08:05:40.851Z,2.40
2017-12-10T08:08:08.394Z,1.70
2017-12-10T08:10:35.864Z,1.40
2017-12-10T08:13:03.296Z,2.20
2017-12-10T08:15:30.757Z,2.25
2017-12-10T08:17:58.961Z,1.87
2017-12-10T08:20:26.440Z,1.80
2017-12-10T08:22:53.902Z,1.27
2017-12-10T08:25:21.441Z,1.60
2017-12-10T08:27:48.973Z,1.77
2017-12-10T08:30:16.409Z,1.52
2017-12-10T08:32:43.844Z,2.35
2017-12-10T08:35:11.389Z,1.85
2017-12-10T08:37:38.813Z,1.90
2017-12-10T08:40:06.254Z,2.40
2017-12-10T08:42:33.692Z,2.00
2017-12-10T08:45:01.172Z,2.35
2017-12-10T08:47:28.619Z,2.40
2017-12-10T08:49:56.046Z,2.20
2017-12-10T08:52:23.505Z,3.05
2017-12-10T08:54:51.028Z,2.17
2017-12-10T08:57:18.501Z,1.55
2017-12-10T08:59:45.941Z,1.50
2017-12-10T09:02:13.378Z,1.70
2017-12-10T09:04:40.812Z,1.30
2017-12-10T09:07:08.829Z,1.40
2017-12-10T09:09:36.274Z,2.15
2017-12-10T09:12:03.718Z,1.75
2017-12-10T09:14:31.152Z,1.70
2017-12-10T09:16:58.579Z,2.00
2017-12-10T09:19:26.781Z,2.20
2017-12-10T09:21:54.238Z,1.50
2017-12-10T09:24:21.674Z,2.30
2017-12-10T09:26:49.141Z,2.22
2017-12-10T09:29:16.563Z,2.83
2017-12-10T09:31:44.130Z,2.00
2017-12-10T09:34:11.565Z,1.90
2017-12-10T09:36:39.103Z,1.50
2017-12-10T09:39:06.540Z,1.83
2017-12-10T09:41:33.968Z,1.60
2017-12-10T09:44:01.446Z,1.35
2017-12-10T09:46:28.868Z,2.85
2017-12-10T09:48:56.355Z,1.40
2017-12-10T09:51:24.577Z,1.55
2017-12-10T09:53:52.032Z,1.70
2017-12-10T09:56:19.455Z,2.08
2017-12-10T09:58:46.909Z,1.62
2017-12-10T10:01:14.332Z,1.80
2017-12-10T10:03:41.827Z,1.87
2017-12-10T10:06:09.248Z,2.22
2017-12-10T10:08:36.814Z,1.50
2017-12-10T10:11:05.016Z,1.02
2017-12-10T10:13:32.452Z,1.40
2017-12-10T10:15:59.941Z,3.05
2017-12-10T10:18:27.367Z,2.35
2017-12-10T10:20:54.812Z,2.20
2017-12-10T10:23:22.272Z,2.10
2017-12-10T10:25:49.760Z,1.37
2017-12-10T10:28:17.221Z,2.10
2017-12-10T10:30:44.656Z,1.30
2017-12-10T10:33:12.244Z,2.17
2017-12-10T10:35:39.680Z,2.08
2017-12-10T10:38:07.939Z,1.33
2017-12-10T10:40:35.431Z,1.50
2017-12-10T10:43:02.944Z,3.00
2017-12-10T10:45:31.200Z,2.12
2017-12-10T10:47:58.632Z,1.87
2017-12-10T10:50:26.065Z,2.70
2017-12-10T10:52:53.500Z,1.65
2017-12-10T10:55:20.939Z,2.28
2017-12-10T10:57:48.378Z,2.20
2017-12-10T11:00:15.851Z,1.98
2017-12-10T11:02:43.290Z,3.10
2017-12-10T11:05:10.724Z,3.30
2017-12-10T11:07:38.157Z,3.17
2017-12-10T11:10:05.598Z,2.95
2017-12-10T11:12:33.048Z,2.70
2017-12-10T11:15:00.467Z,2.85
2017-12-10T11:17:27.896Z,2.40
2017-12-10T11:19:55.323Z,2.60
2017-12-10T11:22:22.827Z,2.10
2017-12-10T11:24:50.268Z,2.05
2017-12-10T11:27:17.692Z,2.12
2017-12-10T11:29:45.134Z,1.80
2017-12-10T11:32:13.556Z,1.90
2017-12-10T11:34:41.804Z,1.75
2017-12-10T11:37:09.327Z,2.10
2017-12-10T11:39:36.784Z,1.80
2017-12-10T11:42:05.037Z,1.67
2017-12-10T11:44:32.572Z,1.75
2017-12-10T11:47:00.115Z,1.80
2017-12-10T11:49:27.548Z,1.10
2017-12-10T11:51:55.009Z,1.90
2017-12-10T11:54:22.445Z,2.15
2017-12-10T11:56:49.926Z,1.33
2017-12-10T11:59:18.672Z,1.48
2017-12-10T12:01:46.108Z,1.30
2017-12-10T12:04:13.637Z,0.88
2017-12-10T12:06:41.076Z,1.60
2017-12-10T12:09:08.515Z,1.75
2017-12-10T12:11:36.094Z,1.12
2017-12-10T12:14:03.633Z,1.52
2017-12-10T12:16:31.080Z,1.83
2017-12-10T12:18:58.521Z,1.87
2017-12-10T12:21:25.962Z,1.75
2017-12-10T12:23:53.401Z,1.70
2017-12-10T12:26:20.843Z,1.30
2017-12-10T12:28:48.278Z,1.58
2017-12-10T12:31:15.707Z,1.33
2017-12-10T12:33:43.172Z,1.90
2017-12-10T12:36:10.611Z,3.08
2017-12-10T12:38:38.250Z,3.45
2017-12-10T12:41:05.781Z,2.08
2017-12-10T12:43:33.297Z,2.53
2017-12-10T12:48:35.302Z,2.70
2017-12-10T12:51:02.767Z,2.50
2017-12-10T12:53:31.018Z,2.12
2017-12-10T12:55:58.547Z,2.28
2017-12-10T12:58:25.988Z,2.03
2017-12-10T13:00:53.456Z,1.98
2017-12-10T13:03:21.688Z,2.25
2017-12-10T13:05:49.132Z,1.75
2017-12-10T13:08:16.575Z,1.87
2017-12-10T13:10:44.016Z,1.58
2017-12-10T13:13:11.473Z,1.75
2017-12-10T13:15:39.016Z,2.17
2017-12-10T13:18:06.476Z,2.37
2017-12-10T13:20:34.677Z,2.65
2017-12-10T13:23:02.145Z,2.03
2017-12-10T13:25:29.600Z,1.73
2017-12-10T13:27:57.044Z,1.90
2017-12-10T13:30:24.498Z,1.80
2017-12-10T13:32:51.934Z,2.55
2017-12-10T13:35:19.373Z,2.05
2017-12-10T13:37:48.420Z,1.65
2017-12-10T13:40:15.850Z,2.97
2017-12-10T13:42:43.300Z,1.80
2017-12-10T13:45:10.736Z,2.42
2017-12-10T13:47:38.188Z,2.37
2017-12-10T13:50:05.635Z,1.90
2017-12-10T13:52:33.068Z,1.70
2017-12-10T13:55:00.505Z,2.00
2017-12-10T13:57:27.989Z,1.73
2017-12-10T13:59:55.433Z,2.30
2017-12-10T14:02:22.963Z,1.70
2017-12-10T14:04:51.062Z,1.77
2017-12-10T14:07:18.502Z,1.75
2017-12-10T14:09:45.958Z,1.90
2017-12-10T14:12:13.387Z,2.15
2017-12-10T14:14:40.828Z,2.37
2017-12-10T14:17:08.261Z,2.10
2017-12-10T14:19:35.726Z,2.40
2017-12-10T14:22:03.160Z,2.22
2017-12-10T14:24:30.621Z,2.00
2017-12-10T14:26:58.079Z,2.50
2017-12-10T14:29:25.524Z,3.40
2017-12-10T14:31:53.021Z,2.50
2017-12-10T14:34:20.452Z,3.33
2017-12-10T14:36:48.028Z,3.50
2017-12-10T14:39:15.533Z,4.30
2017-12-10T14:41:43.720Z,3.62
2017-12-10T14:44:11.203Z,4.10
2017-12-10T14:46:38.657Z,4.25
2017-12-10T14:49:06.089Z,3.47
2017-12-10T14:51:33.543Z,3.03
2017-12-10T14:54:00.972Z,3.80
2017-12-10T14:56:28.581Z,4.35
2017-12-10T14:58:56.012Z,2.97
2017-12-10T15:01:23.448Z,3.40
2017-12-10T15:03:50.891Z,3.95
2017-12-10T15:06:18.366Z,4.97
2017-12-10T15:08:46.828Z,5.20
2017-12-10T15:11:14.272Z,6.05
2017-12-10T15:13:41.684Z,6.10
2017-12-10T15:16:09.183Z,6.55
2017-12-10T15:18:36.632Z,6.72
2017-12-10T15:21:04.064Z,6.20
2017-12-10T15:23:31.488Z,5.80
2017-12-10T15:25:58.931Z,5.53
2017-12-10T15:28:26.384Z,5.53
2017-12-10T15:30:53.839Z,4.90
2017-12-10T15:33:21.255Z,5.62
2017-12-10T15:35:48.703Z,5.05
2017-12-10T15:38:16.346Z,5.95
2017-12-10T15:40:43.788Z,5.10
2017-12-10T15:43:11.212Z,5.68
2017-12-10T15:45:38.667Z,4.55
2017-12-10T15:48:06.144Z,5.50
2017-12-10T15:50:33.587Z,5.50
2017-12-10T15:53:01.941Z,5.72
2017-12-10T15:55:29.585Z,5.62
2017-12-10T15:57:57.047Z,5.18
2017-12-10T16:00:24.640Z,5.28
2017-12-10T16:02:52.110Z,5.47
2017-12-10T16:05:19.568Z,6.03
2017-12-10T16:07:47.008Z,6.00
2017-12-10T16:10:14.456Z,5.35
2017-12-10T16:12:41.964Z,6.60
2017-12-10T16:15:09.404Z,4.80
2017-12-10T16:17:36.832Z,3.40
2017-12-10T16:20:04.264Z,2.28
2017-12-10T16:22:31.696Z,1.58
2017-12-10T16:24:59.941Z,1.70
2017-12-10T16:27:27.380Z,0.90
2017-12-10T16:29:54.917Z,1.30
2017-12-10T16:32:22.477Z,1.55
2017-12-10T16:34:50.184Z,1.20
2017-12-10T16:37:17.657Z,1.48
2017-12-10T16:39:45.099Z,1.00
2017-12-10T16:42:12.523Z,1.00
2017-12-10T16:44:39.953Z,0.93
2017-12-10T16:47:07.416Z,0.70
2017-12-10T16:49:34.850Z,1.05
2017-12-10T16:52:02.912Z,1.10
2017-12-10T16:54:30.393Z,1.00
2017-12-10T16:56:57.805Z,0.90
2017-12-10T16:59:25.247Z,1.12
2017-12-10T17:01:52.690Z,1.10
2017-12-10T17:04:20.236Z,1.05
2017-12-10T17:06:47.710Z,1.17
2017-12-10T17:09:15.137Z,0.93
2017-12-10T17:11:42.559Z,2.35
2017-12-10T17:14:10.005Z,0.80
2017-12-10T17:16:37.537Z,0.88
2017-12-10T17:19:04.988Z,1.20
2017-12-10T17:21:32.448Z,0.90
2017-12-10T17:23:59.932Z,0.90
2017-12-10T17:26:27.420Z,1.23
2017-12-10T17:28:54.871Z,1.02
2017-12-10T17:31:22.296Z,1.10
2017-12-10T17:33:49.759Z,1.00
2017-12-10T17:36:17.219Z,1.20
2017-12-10T17:38:45.431Z,0.98
2017-12-10T17:41:12.920Z,1.00
2017-12-10T17:43:40.444Z,0.82
2017-12-10T17:46:07.888Z,0.70
2017-12-10T17:48:35.324Z,0.90
2017-12-10T17:51:02.752Z,0.70
2017-12-10T17:53:30.185Z,1.00
2017-12-10T17:55:57.640Z,1.00
2017-12-10T17:58:26.049Z,1.30
2017-12-10T18:00:54.387Z,1.00
2017-12-10T18:03:21.804Z,3.20
2017-12-10T18:05:49.240Z,1.45
2017-12-10T18:08:16.655Z,0.70
2017-12-10T18:10:44.086Z,0.90
2017-12-10T18:13:12.272Z,0.73
2017-12-10T18:15:39.713Z,0.90
2017-12-10T18:18:07.168Z,1.40
2017-12-10T18:20:34.699Z,1.00
2017-12-10T18:23:02.124Z,1.23
2017-12-10T18:25:29.574Z,0.93
2017-12-10T18:27:57.005Z,1.12
2017-12-10T18:30:24.488Z,1.10
2017-12-10T18:32:52.674Z,1.08
2017-12-10T18:35:20.113Z,1.20
2017-12-10T18:37:47.541Z,0.80
2017-12-10T18:40:15.744Z,0.95
2017-12-10T18:42:43.172Z,1.00
2017-12-10T18:45:10.603Z,1.05
2017-12-10T18:47:38.029Z,1.25
2017-12-10T18:50:06.224Z,1.30
2017-12-10T18:52:33.695Z,1.40
2017-12-10T18:55:01.217Z,1.27
2017-12-10T18:57:28.667Z,1.10
2017-12-10T18:59:56.124Z,1.40
2017-12-10T19:02:23.560Z,1.52
2017-12-10T19:04:50.988Z,1.40
2017-12-10T19:07:18.557Z,1.23
2017-12-10T19:09:46.004Z,1.50
2017-12-10T19:12:13.557Z,1.25
2017-12-10T19:14:40.976Z,1.90
2017-12-10T19:17:08.449Z,1.02
2017-12-10T19:19:35.881Z,1.83
2017-12-10T19:22:03.326Z,1.08
2017-12-10T19:24:30.822Z,1.40
2017-12-10T19:26:58.256Z,1.17
2017-12-10T19:29:25.749Z,1.30
2017-12-10T19:31:53.230Z,1.27
2017-12-10T19:34:20.657Z,1.23
2017-12-10T19:36:48.180Z,1.67
2017-12-10T19:39:17.148Z,0.68
2017-12-10T19:41:44.661Z,0.90
2017-12-10T19:44:12.101Z,1.20
2017-12-10T19:46:39.630Z,1.30
2017-12-10T19:49:07.090Z,1.00
2017-12-10T19:51:34.583Z,0.80
2017-12-10T19:54:02.814Z,0.60
2017-12-10T19:56:30.410Z,0.80
2017-12-10T19:58:57.851Z,0.77
2017-12-10T20:01:25.278Z,0.85
2017-12-10T20:03:58.485Z,0.62
2017-12-10T20:06:25.910Z,0.55
2017-12-10T20:08:53.356Z,0.62
2017-12-10T20:11:20.804Z,7.53
2017-12-10T20:13:48.303Z,3.00
2017-12-10T20:16:15.759Z,0.85
2017-12-10T20:18:43.255Z,0.55
2017-12-10T20:21:10.665Z,0.90
2017-12-10T20:23:38.140Z,1.60
2017-12-10T20:26:05.568Z,0.70
2017-12-10T20:28:33.020Z,0.65
2017-12-10T20:31:00.444Z,0.50
2017-12-10T20:33:27.877Z,0.68
2017-12-10T20:35:55.320Z,0.70
2017-12-10T20:38:22.758Z,0.70
2017-12-10T20:40:50.251Z,0.90
2017-12-10T20:43:18.470Z,0.90
2017-12-10T20:45:45.888Z,0.60
2017-12-10T20:48:13.328Z,0.60
2017-12-10T20:50:40.768Z,0.60
2017-12-10T20:53:08.201Z,2.47
2017-12-10T20:55:35.627Z,1.77
2017-12-10T20:58:03.859Z,1.30
2017-12-10T21:00:31.354Z,0.90
2017-12-10T21:02:58.757Z,1.00
2017-12-10T21:05:26.189Z,1.12
2017-12-10T21:07:53.749Z,0.62
2017-12-10T21:10:21.182Z,0.70
2017-12-10T21:12:48.638Z,1.10
2017-12-10T21:15:16.076Z,0.75
2017-12-10T21:17:43.506Z,0.77
2017-12-10T21:20:10.986Z,0.80
2017-12-10T21:22:38.372Z,0.80
2017-12-10T21:25:05.811Z,0.62
2017-12-10T21:27:33.295Z,0.80
2017-12-10T21:30:00.694Z,1.30
2017-12-10T21:32:28.188Z,0.73
2017-12-10T21:34:56.399Z,1.40
2017-12-10T21:37:23.820Z,0.50
2017-12-10T21:39:51.308Z,0.50
2017-12-10T21:42:18.823Z,0.90
2017-12-10T21:44:46.271Z,1.23
2017-12-10T21:47:13.693Z,1.48
2017-12-10T21:49:41.139Z,0.95
2017-12-10T21:52:08.568Z,1.67
2017-12-10T21:54:35.992Z,1.95
2017-12-10T21:57:03.427Z,1.50
2017-12-10T21:59:30.852Z,1.17
2017-12-10T22:01:58.296Z,1.60
2017-12-10T22:04:25.725Z,1.40
2017-12-10T22:06:53.160Z,1.12
2017-12-10T22:09:21.411Z,1.12
2017-12-10T22:11:48.844Z,1.30
2017-12-10T22:14:16.268Z,1.05
2017-12-10T22:16:43.725Z,1.08
2017-12-10T22:19:11.172Z,0.60
2017-12-10T22:21:40.117Z,0.80
2017-12-10T22:24:07.605Z,0.80
2017-12-10T22:26:35.812Z,0.93
2017-12-10T22:29:03.255Z,0.90
2017-12-10T22:31:30.728Z,1.08
2017-12-10T22:33:58.188Z,1.00
2017-12-10T22:36:25.639Z,1.00
2017-12-10T22:38:53.823Z,1.20
2017-12-10T22:41:21.260Z,1.00
2017-12-10T22:43:48.704Z,0.75
2017-12-10T22:46:16.208Z,1.00
2017-12-10T22:48:43.648Z,1.30
2017-12-10T22:51:11.075Z,1.00
2017-12-10T22:53:38.523Z,0.80
2017-12-10T22:56:05.976Z,1.10
2017-12-10T22:58:33.408Z,0.88
2017-12-10T23:01:00.856Z,0.80
2017-12-10T23:03:28.833Z,0.50
2017-12-10T23:05:56.277Z,0.50
2017-12-10T23:08:23.717Z,0.70
2017-12-10T23:10:51.245Z,0.75
2017-12-10T23:13:18.690Z,0.55
2017-12-10T23:15:46.120Z,0.60
2017-12-10T23:18:13.686Z,0.77
2017-12-10T23:20:41.220Z,0.70
2017-12-10T23:23:08.770Z,0.70
2017-12-10T23:25:36.213Z,0.85
2017-12-10T23:28:04.444Z,0.70
2017-12-10T23:30:31.880Z,1.20
2017-12-10T23:32:59.427Z,0.90
2017-12-10T23:35:26.861Z,0.93
2017-12-10T23:37:54.325Z,0.85
2017-12-10T23:40:21.764Z,0.93
2017-12-10T23:42:49.196Z,1.08
2017-12-10T23:45:16.629Z,1.52
2017-12-10T23:47:44.055Z,0.90
2017-12-10T23:50:11.496Z,1.00
2017-12-10T23:52:38.975Z,1.00
2017-12-10T23:55:06.410Z,1.12
2017-12-10T23:57:33.840Z,1.20
